Greystone Park, New Jersey
Current Conditions -  °F | °C
As of 9:35 PM on Thursday 20 Nov 2014 (Local Time) from KMMU Reporting Station
NA  
Wind Chill: 28°   Ceiling: NA
Heat Index: 34°   Visibility: 10mi
Dew Point:   Wind: 7mph
Humidity: 32%   Direction: 290°WNW
Pressure: 30"   Gusts: 17mph
Location:  40.8475°N, 74.4826°W
Report Text: KMMU 210235Z AUTO 29006G15KT 10SM 01/M14 A3000 RMK AO2
Loading
Personal Weather Stations






























Interactive Weather Map New forecast layout! Learn more

10-Day Weather Forecast

Advertisements
Track Severe Weather on mobile